sensor_id;sensor_type;location;lat;lon;timestamp;pressure;altitude;pressure_sealevel;temperature;humidity
42125;BME280;27787;44.594;11.046;2022-07-29T00:00:29;100819.44;;;25.50;58.42
42125;BME280;27787;44.594;11.046;2022-07-29T00:03:14;100830.31;;;25.49;58.38
42125;BME280;27787;44.594;11.046;2022-07-29T00:05:58;100825.81;;;25.32;59.25
42125;BME280;27787;44.594;11.046;2022-07-29T00:08:42;100827.59;;;25.16;59.90
42125;BME280;27787;44.594;11.046;2022-07-29T00:11:26;100834.41;;;25.06;59.96
42125;BME280;27787;44.594;11.046;2022-07-29T00:14:10;100846.19;;;24.86;60.07
42125;BME280;27787;44.594;11.046;2022-07-29T00:16:55;100832.84;;;24.65;61.30
42125;BME280;27787;44.594;11.046;2022-07-29T00:19:39;100847.88;;;24.52;61.91
42125;BME280;27787;44.594;11.046;2022-07-29T00:22:24;100841.53;;;24.34;63.81
42125;BME280;27787;44.594;11.046;2022-07-29T00:25:08;100848.41;;;24.23;65.36
42125;BME280;27787;44.594;11.046;2022-07-29T00:27:52;100842.63;;;24.11;66.13
42125;BME280;27787;44.594;11.046;2022-07-29T00:30:36;100853.78;;;24.04;66.56
42125;BME280;27787;44.594;11.046;2022-07-29T00:33:21;100854.94;;;23.98;67.13
42125;BME280;27787;44.594;11.046;2022-07-29T00:36:06;100842.34;;;23.99;67.34
42125;BME280;27787;44.594;11.046;2022-07-29T00:38:51;100852.75;;;24.06;67.19
42125;BME280;27787;44.594;11.046;2022-07-29T00:41:35;100857.28;;;24.06;67.14
42125;BME280;27787;44.594;11.046;2022-07-29T00:44:19;100850.06;;;24.06;67.44
42125;BME280;27787;44.594;11.046;2022-07-29T00:47:03;100846.94;;;24.16;67.16
42125;BME280;27787;44.594;11.046;2022-07-29T00:49:48;100856.84;;;24.15;67.22
42125;BME280;27787;44.594;11.046;2022-07-29T00:52:37;100840.44;;;24.01;67.82
42125;BME280;27787;44.594;11.046;2022-07-29T00:55:22;100839.50;;;24.02;68.15
42125;BME280;27787;44.594;11.046;2022-07-29T00:58:07;100847.81;;;24.16;67.44
42125;BME280;27787;44.594;11.046;2022-07-29T01:00:52;100839.28;;;24.25;67.54
42125;BME280;27787;44.594;11.046;2022-07-29T01:03:36;100849.13;;;24.26;67.05
42125;BME280;27787;44.594;11.046;2022-07-29T01:06:20;100846.34;;;24.28;67.13
42125;BME280;27787;44.594;11.046;2022-07-29T01:09:05;100842.41;;;24.35;66.94
42125;BME280;27787;44.594;11.046;2022-07-29T01:11:49;100839.28;;;24.44;66.78
42125;BME280;27787;44.594;11.046;2022-07-29T01:14:34;100839.00;;;24.50;66.47
42125;BME280;27787;44.594;11.046;2022-07-29T01:17:24;100840.66;;;24.53;65.89
42125;BME280;27787;44.594;11.046;2022-07-29T01:23:40;100841.25;;;24.40;66.13
42125;BME280;27787;44.594;11.046;2022-07-29T01:26:37;100832.81;;;24.48;66.13
42125;BME280;27787;44.594;11.046;2022-07-29T01:29:47;100836.84;;;24.57;65.41
42125;BME280;27787;44.594;11.046;2022-07-29T01:32:35;100833.38;;;24.55;65.65
42125;BME280;27787;44.594;11.046;2022-07-29T01:35:24;100839.56;;;24.57;65.59
42125;BME280;27787;44.594;11.046;2022-07-29T01:38:16;100828.69;;;24.58;65.18
42125;BME280;27787;44.594;11.046;2022-07-29T01:41:13;100826.78;;;24.60;64.94
42125;BME280;27787;44.594;11.046;2022-07-29T01:44:19;100829.19;;;24.48;65.78
42125;BME280;27787;44.594;11.046;2022-07-29T01:47:12;100824.75;;;24.47;66.15
42125;BME280;27787;44.594;11.046;2022-07-29T01:49:59;100827.53;;;24.45;65.96
42125;BME280;27787;44.594;11.046;2022-07-29T01:52:56;100828.66;;;24.41;65.71
42125;BME280;27787;44.594;11.046;2022-07-29T01:55:44;100832.38;;;24.38;65.82
42125;BME280;27787;44.594;11.046;2022-07-29T01:58:31;100831.34;;;24.41;65.54
42125;BME280;27787;44.594;11.046;2022-07-29T02:01:16;100832.53;;;24.35;65.13
42125;BME280;27787;44.594;11.046;2022-07-29T02:04:03;100827.34;;;24.31;65.47
42125;BME280;27787;44.594;11.046;2022-07-29T02:06:51;100820.81;;;24.35;65.58
42125;BME280;27787;44.594;11.046;2022-07-29T02:09:37;100819.03;;;24.35;65.82
42125;BME280;27787;44.594;11.046;2022-07-29T02:12:23;100821.56;;;24.38;65.47
42125;BME280;27787;44.594;11.046;2022-07-29T02:15:10;100823.47;;;24.36;65.18
42125;BME280;27787;44.594;11.046;2022-07-29T02:18:02;100820.91;;;24.33;65.36
42125;BME280;27787;44.594;11.046;2022-07-29T02:20:50;100817.53;;;24.28;65.03
42125;BME280;27787;44.594;11.046;2022-07-29T02:23:38;100815.16;;;24.22;64.96
42125;BME280;27787;44.594;11.046;2022-07-29T02:26:24;100802.91;;;24.15;65.20
42125;BME280;27787;44.594;11.046;2022-07-29T02:29:10;100804.88;;;24.11;65.38
42125;BME280;27787;44.594;11.046;2022-07-29T02:31:57;100799.19;;;23.99;65.90
42125;BME280;27787;44.594;11.046;2022-07-29T02:34:43;100806.75;;;23.91;65.96
42125;BME280;27787;44.594;11.046;2022-07-29T02:37:29;100804.44;;;23.83;66.09
42125;BME280;27787;44.594;11.046;2022-07-29T02:40:15;100804.44;;;23.83;66.24
42125;BME280;27787;44.594;11.046;2022-07-29T02:43:01;100812.00;;;23.94;65.54
42125;BME280;27787;44.594;11.046;2022-07-29T02:45:47;100803.63;;;24.00;65.43
42125;BME280;27787;44.594;11.046;2022-07-29T02:48:37;100811.34;;;24.07;64.87
42125;BME280;27787;44.594;11.046;2022-07-29T02:51:30;100804.94;;;24.10;64.20
42125;BME280;27787;44.594;11.046;2022-07-29T02:54:23;100800.78;;;24.03;64.26
42125;BME280;27787;44.594;11.046;2022-07-29T02:57:21;100801.00;;;23.98;64.35
42125;BME280;27787;44.594;11.046;2022-07-29T03:00:08;100807.28;;;23.99;64.51
42125;BME280;27787;44.594;11.046;2022-07-29T03:02:56;100802.69;;;24.01;64.30
42125;BME280;27787;44.594;11.046;2022-07-29T03:05:40;100802.69;;;24.01;63.99
42125;BME280;27787;44.594;11.046;2022-07-29T03:08:26;100796.50;;;23.99;63.94
42125;BME280;27787;44.594;11.046;2022-07-29T03:11:12;100801.00;;;23.98;63.99
42125;BME280;27787;44.594;11.046;2022-07-29T03:13:56;100801.97;;;23.97;63.89
42125;BME280;27787;44.594;11.046;2022-07-29T03:16:41;100794.59;;;24.01;63.71
42125;BME280;27787;44.594;11.046;2022-07-29T03:19:26;100791.81;;;24.02;63.54
42125;BME280;27787;44.594;11.046;2022-07-29T03:22:11;100804.19;;;24.06;63.25
42125;BME280;27787;44.594;11.046;2022-07-29T03:24:56;100806.03;;;24.06;63.23
42125;BME280;27787;44.594;11.046;2022-07-29T03:27:40;100803.31;;;24.06;63.32
42125;BME280;27787;44.594;11.046;2022-07-29T03:30:24;100797.84;;;24.07;63.23
42125;BME280;27787;44.594;11.046;2022-07-29T03:33:09;100795.25;;;24.06;63.20
42125;BME280;27787;44.594;11.046;2022-07-29T03:35:53;100791.03;;;24.00;63.66
42125;BME280;27787;44.594;11.046;2022-07-29T03:38:38;100799.31;;;23.96;63.51
42125;BME280;27787;44.594;11.046;2022-07-29T03:41:24;100802.47;;;23.87;64.16
42125;BME280;27787;44.594;11.046;2022-07-29T03:44:09;100801.88;;;23.80;64.56
42125;BME280;27787;44.594;11.046;2022-07-29T03:46:57;100798.53;;;23.75;64.80
42125;BME280;27787;44.594;11.046;2022-07-29T03:49:46;100807.25;;;23.80;64.73
42125;BME280;27787;44.594;11.046;2022-07-29T03:52:33;100809.59;;;23.88;64.17
42125;BME280;27787;44.594;11.046;2022-07-29T03:55:18;100809.38;;;23.92;64.25
42125;BME280;27787;44.594;11.046;2022-07-29T03:58:03;100796.63;;;23.96;63.89
42125;BME280;27787;44.594;11.046;2022-07-29T04:00:48;100801.09;;;23.97;63.89
42125;BME280;27787;44.594;11.046;2022-07-29T04:03:33;100806.59;;;23.94;63.98
42125;BME280;27787;44.594;11.046;2022-07-29T04:06:18;100811.06;;;23.76;64.26
42125;BME280;27787;44.594;11.046;2022-07-29T04:09:02;100812.13;;;23.51;65.88
42125;BME280;27787;44.594;11.046;2022-07-29T04:11:46;100817.75;;;23.27;66.57
42125;BME280;27787;44.594;11.046;2022-07-29T04:14:32;100826.81;;;23.04;67.43
42125;BME280;27787;44.594;11.046;2022-07-29T04:17:16;100828.63;;;22.83;68.25
42125;BME280;27787;44.594;11.046;2022-07-29T04:20:00;100826.56;;;22.67;69.44
42125;BME280;27787;44.594;11.046;2022-07-29T04:22:45;100824.84;;;22.65;69.79
42125;BME280;27787;44.594;11.046;2022-07-29T04:25:29;100833.50;;;22.73;69.65
42125;BME280;27787;44.594;11.046;2022-07-29T04:28:13;100834.50;;;22.92;69.02
42125;BME280;27787;44.594;11.046;2022-07-29T04:30:57;100831.34;;;23.03;68.38
42125;BME280;27787;44.594;11.046;2022-07-29T04:33:42;100834.66;;;23.10;68.21
42125;BME280;27787;44.594;11.046;2022-07-29T04:36:29;100847.09;;;23.12;68.06
42125;BME280;27787;44.594;11.046;2022-07-29T04:39:13;100848.19;;;23.08;68.59
42125;BME280;27787;44.594;11.046;2022-07-29T04:41:58;100851.94;;;23.04;68.39
42125;BME280;27787;44.594;11.046;2022-07-29T04:44:42;100853.16;;;22.97;68.46
42125;BME280;27787;44.594;11.046;2022-07-29T04:47:27;100848.88;;;22.91;69.07
42125;BME280;27787;44.594;11.046;2022-07-29T04:50:11;100860.28;;;22.98;68.86
42125;BME280;27787;44.594;11.046;2022-07-29T04:55:39;100860.56;;;23.12;68.08
42125;BME280;27787;44.594;11.046;2022-07-29T04:58:23;100859.63;;;23.13;68.34
42125;BME280;27787;44.594;11.046;2022-07-29T05:01:07;100858.03;;;23.09;68.68
42125;BME280;27787;44.594;11.046;2022-07-29T05:03:52;100855.31;;;23.09;69.20
42125;BME280;27787;44.594;11.046;2022-07-29T05:06:36;100861.53;;;23.11;68.80
42125;BME280;27787;44.594;11.046;2022-07-29T05:09:20;100858.81;;;23.11;68.75
42125;BME280;27787;44.594;11.046;2022-07-29T05:12:04;100876.06;;;23.07;68.76
42125;BME280;27787;44.594;11.046;2022-07-29T05:14:48;100878.06;;;23.02;69.42
42125;BME280;27787;44.594;11.046;2022-07-29T05:17:32;100868.97;;;23.05;69.86
42125;BME280;27787;44.594;11.046;2022-07-29T05:20:17;100874.91;;;23.13;69.00
42125;BME280;27787;44.594;11.046;2022-07-29T05:23:02;100874.53;;;23.22;69.01
42125;BME280;27787;44.594;11.046;2022-07-29T05:25:47;100876.75;;;23.33;68.22
42125;BME280;27787;44.594;11.046;2022-07-29T05:28:34;100873.84;;;23.37;67.49
42125;BME280;27787;44.594;11.046;2022-07-29T05:31:21;100876.00;;;23.29;67.32
42125;BME280;27787;44.594;11.046;2022-07-29T05:34:05;100872.63;;;23.24;67.63
42125;BME280;27787;44.594;11.046;2022-07-29T05:36:49;100872.97;;;23.16;67.59
42125;BME280;27787;44.594;11.046;2022-07-29T05:39:33;100876.34;;;23.21;67.75
42125;BME280;27787;44.594;11.046;2022-07-29T05:42:18;100881.03;;;23.16;68.06
42125;BME280;27787;44.594;11.046;2022-07-29T05:45:02;100891.06;;;23.13;68.05
42125;BME280;27787;44.594;11.046;2022-07-29T05:47:47;100891.16;;;23.11;68.65
42125;BME280;27787;44.594;11.046;2022-07-29T05:50:31;100891.78;;;23.18;69.07
42125;BME280;27787;44.594;11.046;2022-07-29T05:53:15;100896.28;;;23.38;68.31
42125;BME280;27787;44.594;11.046;2022-07-29T05:56:03;100903.63;;;23.54;67.91
42125;BME280;27787;44.594;11.046;2022-07-29T05:58:48;100904.19;;;23.63;67.78
42125;BME280;27787;44.594;11.046;2022-07-29T06:01:32;100906.69;;;23.67;67.66
42125;BME280;27787;44.594;11.046;2022-07-29T06:04:17;100903.88;;;23.70;67.94
42125;BME280;27787;44.594;11.046;2022-07-29T06:07:01;100910.72;;;23.77;68.01
42125;BME280;27787;44.594;11.046;2022-07-29T06:09:45;100913.16;;;23.83;67.76
42125;BME280;27787;44.594;11.046;2022-07-29T06:12:29;100916.72;;;23.84;68.19
42125;BME280;27787;44.594;11.046;2022-07-29T06:15:14;100913.19;;;23.82;68.73
42125;BME280;27787;44.594;11.046;2022-07-29T06:18:01;100913.16;;;23.83;68.89
42125;BME280;27787;44.594;11.046;2022-07-29T06:20:50;100920.16;;;23.88;69.12
42125;BME280;27787;44.594;11.046;2022-07-29T06:23:34;100927.78;;;23.78;69.39
42125;BME280;27787;44.594;11.046;2022-07-29T06:26:18;100926.16;;;23.74;69.76
42125;BME280;27787;44.594;11.046;2022-07-29T06:29:02;100928.94;;;23.72;70.14
42125;BME280;27787;44.594;11.046;2022-07-29T06:31:46;100935.22;;;23.73;69.86
42125;BME280;27787;44.594;11.046;2022-07-29T06:34:30;100937.22;;;23.68;69.96
42125;BME280;27787;44.594;11.046;2022-07-29T06:37:14;100944.25;;;23.72;70.27
42125;BME280;27787;44.594;11.046;2022-07-29T06:39:58;100948.06;;;23.87;70.46
42125;BME280;27787;44.594;11.046;2022-07-29T06:43:01;100937.59;;;23.99;69.87
42125;BME280;27787;44.594;11.046;2022-07-29T06:45:45;100939.84;;;24.08;69.13
42125;BME280;27787;44.594;11.046;2022-07-29T06:48:30;100933.66;;;24.06;69.00
42125;BME280;27787;44.594;11.046;2022-07-29T06:51:14;100938.13;;;24.07;69.91
42125;BME280;27787;44.594;11.046;2022-07-29T06:54:00;100935.88;;;24.17;69.58
42125;BME280;27787;44.594;11.046;2022-07-29T06:56:44;100933.19;;;24.17;68.54
42125;BME280;27787;44.594;11.046;2022-07-29T06:59:29;100933.97;;;24.19;68.87
42125;BME280;27787;44.594;11.046;2022-07-29T07:02:13;100926.56;;;24.24;68.62
42125;BME280;27787;44.594;11.046;2022-07-29T07:04:57;100939.72;;;24.32;68.14
42125;BME280;27787;44.594;11.046;2022-07-29T07:07:42;100936.13;;;24.31;67.19
42125;BME280;27787;44.594;11.046;2022-07-29T07:10:27;100934.66;;;24.24;67.22
42125;BME280;27787;44.594;11.046;2022-07-29T07:13:12;100933.63;;;24.27;68.26
42125;BME280;27787;44.594;11.046;2022-07-29T07:15:56;100936.81;;;24.36;67.58
42125;BME280;27787;44.594;11.046;2022-07-29T07:18:40;100934.47;;;24.48;66.53
42125;BME280;27787;44.594;11.046;2022-07-29T07:21:24;100931.41;;;24.55;65.72
42125;BME280;27787;44.594;11.046;2022-07-29T07:24:09;100937.41;;;24.62;65.23
42125;BME280;27787;44.594;11.046;2022-07-29T07:26:52;100938.75;;;24.70;66.04
42125;BME280;27787;44.594;11.046;2022-07-29T07:29:37;100930.16;;;24.81;65.85
42125;BME280;27787;44.594;11.046;2022-07-29T07:32:25;100935.25;;;24.87;64.62
42125;BME280;27787;44.594;11.046;2022-07-29T07:35:10;100931.28;;;24.94;64.94
42125;BME280;27787;44.594;11.046;2022-07-29T07:37:55;100929.31;;;24.98;64.98
42125;BME280;27787;44.594;11.046;2022-07-29T07:40:39;100919.13;;;25.05;64.91
42125;BME280;27787;44.594;11.046;2022-07-29T07:43:24;100917.22;;;25.07;64.84
42125;BME280;27787;44.594;11.046;2022-07-29T07:46:08;100918.88;;;25.09;64.87
42125;BME280;27787;44.594;11.046;2022-07-29T07:48:52;100923.19;;;25.13;63.82
42125;BME280;27787;44.594;11.046;2022-07-29T07:51:36;100918.72;;;25.12;62.96
42125;BME280;27787;44.594;11.046;2022-07-29T07:54:20;100912.94;;;25.20;63.20
42125;BME280;27787;44.594;11.046;2022-07-29T07:57:04;100914.44;;;25.25;63.10
42125;BME280;27787;44.594;11.046;2022-07-29T07:59:48;100920.66;;;25.27;63.20
42125;BME280;27787;44.594;11.046;2022-07-29T08:02:32;100915.97;;;25.31;62.42
42125;BME280;27787;44.594;11.046;2022-07-29T08:05:17;100916.91;;;25.30;59.41
42125;BME280;27787;44.594;11.046;2022-07-29T08:08:01;100913.88;;;25.36;60.77
42125;BME280;27787;44.594;11.046;2022-07-29T08:10:45;100912.81;;;25.40;61.04
42125;BME280;27787;44.594;11.046;2022-07-29T08:13:39;100911.69;;;25.44;60.81
42125;BME280;27787;44.594;11.046;2022-07-29T08:16:23;100912.38;;;25.48;60.84
42125;BME280;27787;44.594;11.046;2022-07-29T08:19:09;100910.25;;;25.54;60.46
42125;BME280;27787;44.594;11.046;2022-07-29T08:21:53;100913.66;;;25.58;61.11
42125;BME280;27787;44.594;11.046;2022-07-29T08:24:37;100899.09;;;25.61;61.14
42125;BME280;27787;44.594;11.046;2022-07-29T08:27:27;100907.78;;;25.67;61.39
42125;BME280;27787;44.594;11.046;2022-07-29T08:30:14;100904.66;;;25.75;61.51
42125;BME280;27787;44.594;11.046;2022-07-29T08:32:59;100893.69;;;25.78;61.30
42125;BME280;27787;44.594;11.046;2022-07-29T08:35:43;100895.28;;;25.82;61.27
42125;BME280;27787;44.594;11.046;2022-07-29T08:38:27;100902.28;;;25.86;61.32
42125;BME280;27787;44.594;11.046;2022-07-29T08:41:12;100890.25;;;25.92;61.12
42125;BME280;27787;44.594;11.046;2022-07-29T08:43:56;100889.75;;;26.01;60.89
42125;BME280;27787;44.594;11.046;2022-07-29T08:46:41;100883.13;;;26.06;59.83
42125;BME280;27787;44.594;11.046;2022-07-29T08:49:26;100888.28;;;26.11;59.59
42125;BME280;27787;44.594;11.046;2022-07-29T08:52:11;100891.59;;;26.16;59.34
42125;BME280;27787;44.594;11.046;2022-07-29T08:54:55;100884.19;;;26.20;59.77
42125;BME280;27787;44.594;11.046;2022-07-29T08:57:39;100890.13;;;26.26;58.53
42125;BME280;27787;44.594;11.046;2022-07-29T09:00:25;100889.72;;;26.34;58.44
42125;BME280;27787;44.594;11.046;2022-07-29T09:03:15;100895.75;;;26.39;58.12
42125;BME280;27787;44.594;11.046;2022-07-29T09:05:59;100883.00;;;26.41;58.05
42125;BME280;27787;44.594;11.046;2022-07-29T09:08:44;100883.00;;;26.41;57.87
42125;BME280;27787;44.594;11.046;2022-07-29T09:11:28;100875.69;;;26.43;58.24
42125;BME280;27787;44.594;11.046;2022-07-29T09:14:14;100873.59;;;26.48;58.25
42125;BME280;27787;44.594;11.046;2022-07-29T09:16:58;100872.03;;;26.60;57.90
42125;BME280;27787;44.594;11.046;2022-07-29T09:19:43;100873.31;;;26.68;56.80
42125;BME280;27787;44.594;11.046;2022-07-29T09:22:30;100866.41;;;26.79;56.51
42125;BME280;27787;44.594;11.046;2022-07-29T09:25:37;100862.38;;;26.86;56.45
42125;BME280;27787;44.594;11.046;2022-07-29T09:28:21;100854.06;;;26.89;55.46
42125;BME280;27787;44.594;11.046;2022-07-29T09:31:07;100849.22;;;26.94;55.80
42125;BME280;27787;44.594;11.046;2022-07-29T09:33:52;100840.94;;;26.97;55.79
42125;BME280;27787;44.594;11.046;2022-07-29T09:36:49;100847.06;;;27.00;55.41
42125;BME280;27787;44.594;11.046;2022-07-29T09:39:36;100842.09;;;27.09;55.55
42125;BME280;27787;44.594;11.046;2022-07-29T09:42:28;100843.75;;;27.11;54.87
42125;BME280;27787;44.594;11.046;2022-07-29T09:45:29;100839.38;;;27.09;53.50
42125;BME280;27787;44.594;11.046;2022-07-29T09:48:22;100840.59;;;27.03;53.42
42125;BME280;27787;44.594;11.046;2022-07-29T09:51:19;100842.78;;;27.12;54.25
42125;BME280;27787;44.594;11.046;2022-07-29T09:57:23;100840.88;;;27.28;53.54
42125;BME280;27787;44.594;11.046;2022-07-29T10:00:19;100839.16;;;27.42;52.87
42125;BME280;27787;44.594;11.046;2022-07-29T10:03:03;100839.91;;;27.44;53.43
42125;BME280;27787;44.594;11.046;2022-07-29T10:06:10;100828.31;;;27.42;53.44
42125;BME280;27787;44.594;11.046;2022-07-29T10:09:17;100826.38;;;27.44;54.22
42125;BME280;27787;44.594;11.046;2022-07-29T10:12:08;100824.44;;;27.46;53.89
42125;BME280;27787;44.594;11.046;2022-07-29T10:14:53;100825.59;;;27.42;54.17
42125;BME280;27787;44.594;11.046;2022-07-29T10:17:37;100827.63;;;27.38;54.26
42125;BME280;27787;44.594;11.046;2022-07-29T10:20:22;100815.03;;;27.37;54.22
42125;BME280;27787;44.594;11.046;2022-07-29T10:23:08;100813.97;;;27.40;54.09
42125;BME280;27787;44.594;11.046;2022-07-29T10:25:53;100814.53;;;27.45;54.29
42125;BME280;27787;44.594;11.046;2022-07-29T10:28:37;100808.97;;;27.48;54.08
42125;BME280;27787;44.594;11.046;2022-07-29T10:31:28;100809.63;;;27.51;52.92
42125;BME280;27787;44.594;11.046;2022-07-29T10:37:43;100789.97;;;27.62;52.32
42125;BME280;27787;44.594;11.046;2022-07-29T10:43:46;100781.38;;;27.70;52.23
42125;BME280;27787;44.594;11.046;2022-07-29T10:46:37;100765.97;;;27.70;51.57
42125;BME280;27787;44.594;11.046;2022-07-29T10:49:25;100765.75;;;27.73;51.81
42125;BME280;27787;44.594;11.046;2022-07-29T10:52:11;100768.31;;;27.76;51.66
42125;BME280;27787;44.594;11.046;2022-07-29T10:54:55;100765.06;;;27.84;51.91
42125;BME280;27787;44.594;11.046;2022-07-29T10:58:17;100767.19;;;27.93;50.88
42125;BME280;27787;44.594;11.046;2022-07-29T11:01:29;100769.78;;;28.09;50.58
42125;BME280;27787;44.594;11.046;2022-07-29T11:04:13;100767.44;;;28.17;51.49
42125;BME280;27787;44.594;11.046;2022-07-29T11:09:42;100758.31;;;28.18;50.84
42125;BME280;27787;44.594;11.046;2022-07-29T11:15:21;100749.75;;;28.24;50.82
42125;BME280;27787;44.594;11.046;2022-07-29T11:18:07;100754.06;;;28.28;50.40
42125;BME280;27787;44.594;11.046;2022-07-29T11:20:51;100747.78;;;28.28;49.94
42125;BME280;27787;44.594;11.046;2022-07-29T11:23:38;100743.53;;;28.36;49.86
42125;BME280;27787;44.594;11.046;2022-07-29T11:26:23;100753.91;;;28.44;49.58
42125;BME280;27787;44.594;11.046;2022-07-29T11:29:20;100746.53;;;28.46;48.95
42125;BME280;27787;44.594;11.046;2022-07-29T11:32:09;100751.75;;;28.49;49.52
42125;BME280;27787;44.594;11.046;2022-07-29T11:41:25;100748.00;;;28.91;46.80
42125;BME280;27787;44.594;11.046;2022-07-29T11:44:09;100738.94;;;28.91;47.30
42125;BME280;27787;44.594;11.046;2022-07-29T11:46:54;100732.28;;;28.82;46.72
42125;BME280;27787;44.594;11.046;2022-07-29T11:49:44;100727.81;;;28.81;46.98
42125;BME280;27787;44.594;11.046;2022-07-29T11:52:33;100734.41;;;28.91;47.12
42125;BME280;27787;44.594;11.046;2022-07-29T11:55:19;100725.38;;;29.16;46.06
42125;BME280;27787;44.594;11.046;2022-07-29T11:58:04;100721.78;;;29.28;45.46
42125;BME280;27787;44.594;11.046;2022-07-29T12:00:48;100715.56;;;29.39;44.76
42125;BME280;27787;44.594;11.046;2022-07-29T12:03:33;100714.59;;;29.40;44.56
42125;BME280;27787;44.594;11.046;2022-07-29T12:06:18;100714.81;;;29.37;45.76
42125;BME280;27787;44.594;11.046;2022-07-29T12:09:08;100714.28;;;29.32;45.82
42125;BME280;27787;44.594;11.046;2022-07-29T12:11:57;100704.81;;;29.25;45.94
42125;BME280;27787;44.594;11.046;2022-07-29T12:14:41;100706.66;;;29.24;46.15
42125;BME280;27787;44.594;11.046;2022-07-29T12:17:32;100708.63;;;29.35;46.20
42125;BME280;27787;44.594;11.046;2022-07-29T12:20:28;100694.91;;;29.36;44.77
42125;BME280;27787;44.594;11.046;2022-07-29T12:23:14;100682.41;;;29.34;44.40
42125;BME280;27787;44.594;11.046;2022-07-29T12:25:59;100677.38;;;29.41;45.33
42125;BME280;27787;44.594;11.046;2022-07-29T12:28:43;100678.78;;;29.72;44.06
42125;BME280;27787;44.594;11.046;2022-07-29T12:31:27;100670.22;;;29.89;44.11
42125;BME280;27787;44.594;11.046;2022-07-29T12:34:13;100665.38;;;30.05;43.74
42125;BME280;27787;44.594;11.046;2022-07-29T12:36:59;100654.44;;;30.18;42.63
42125;BME280;27787;44.594;11.046;2022-07-29T12:39:44;100651.88;;;30.28;43.12
42125;BME280;27787;44.594;11.046;2022-07-29T12:42:29;100652.00;;;30.26;42.99
42125;BME280;27787;44.594;11.046;2022-07-29T12:45:13;100646.78;;;30.23;43.23
42125;BME280;27787;44.594;11.046;2022-07-29T12:48:00;100642.34;;;30.22;43.61
42125;BME280;27787;44.594;11.046;2022-07-29T12:53:38;100641.81;;;30.17;43.08
42125;BME280;27787;44.594;11.046;2022-07-29T12:56:22;100641.81;;;30.17;42.86
42125;BME280;27787;44.594;11.046;2022-07-29T12:59:21;100637.34;;;30.16;42.91
42125;BME280;27787;44.594;11.046;2022-07-29T13:02:05;100647.19;;;30.30;42.65
42125;BME280;27787;44.594;11.046;2022-07-29T13:04:58;100643.25;;;30.45;42.16
42125;BME280;27787;44.594;11.046;2022-07-29T13:07:43;100634.88;;;30.48;42.58
42125;BME280;27787;44.594;11.046;2022-07-29T13:10:27;100632.16;;;30.48;42.39
42125;BME280;27787;44.594;11.046;2022-07-29T13:13:14;100639.78;;;30.43;42.52
42125;BME280;27787;44.594;11.046;2022-07-29T13:16:07;100636.91;;;30.33;42.14
42125;BME280;27787;44.594;11.046;2022-07-29T13:19:08;100629.59;;;30.22;41.94
42125;BME280;27787;44.594;11.046;2022-07-29T13:21:53;100623.97;;;30.13;41.95
42125;BME280;27787;44.594;11.046;2022-07-29T13:24:48;100628.78;;;30.09;41.64
42125;BME280;27787;44.594;11.046;2022-07-29T13:27:34;100618.56;;;30.00;42.37
42125;BME280;27787;44.594;11.046;2022-07-29T13:30:20;100617.06;;;29.96;42.37
42125;BME280;27787;44.594;11.046;2022-07-29T13:33:06;100612.47;;;29.97;42.57
42125;BME280;27787;44.594;11.046;2022-07-29T13:35:50;100603.53;;;29.94;42.70
42125;BME280;27787;44.594;11.046;2022-07-29T13:38:34;100583.09;;;29.89;43.42
42125;BME280;27787;44.594;11.046;2022-07-29T13:41:18;100581.25;;;29.89;43.42
42125;BME280;27787;44.594;11.046;2022-07-29T13:44:02;100571.00;;;29.93;44.23
42125;BME280;27787;44.594;11.046;2022-07-29T13:46:47;100570.78;;;29.96;44.37
42125;BME280;27787;44.594;11.046;2022-07-29T13:49:31;100564.34;;;29.97;43.70
42125;BME280;27787;44.594;11.046;2022-07-29T13:52:15;100557.66;;;30.01;43.93
42125;BME280;27787;44.594;11.046;2022-07-29T13:54:59;100559.28;;;30.04;44.11
42125;BME280;27787;44.594;11.046;2022-07-29T13:57:43;100563.31;;;30.11;43.74
42125;BME280;27787;44.594;11.046;2022-07-29T14:00:27;100558.66;;;30.24;43.60
42125;BME280;27787;44.594;11.046;2022-07-29T14:03:11;100551.00;;;30.40;43.17
42125;BME280;27787;44.594;11.046;2022-07-29T14:05:55;100559.19;;;30.51;42.27
42125;BME280;27787;44.594;11.046;2022-07-29T14:08:40;100550.19;;;30.62;42.62
42125;BME280;27787;44.594;11.046;2022-07-29T14:11:24;100546.38;;;30.76;41.86
42125;BME280;27787;44.594;11.046;2022-07-29T14:14:09;100528.16;;;30.88;40.93
42125;BME280;27787;44.594;11.046;2022-07-29T14:16:54;100525.19;;;30.91;40.89
42125;BME280;27787;44.594;11.046;2022-07-29T14:19:38;100522.06;;;30.84;41.18
42125;BME280;27787;44.594;11.046;2022-07-29T14:22:23;100526.31;;;30.77;41.31
42125;BME280;27787;44.594;11.046;2022-07-29T14:25:09;100523.19;;;30.70;41.46
42125;BME280;27787;44.594;11.046;2022-07-29T14:27:53;100523.91;;;30.61;41.31
42125;BME280;27787;44.594;11.046;2022-07-29T14:30:37;100549.28;;;30.50;41.48
42125;BME280;27787;44.594;11.046;2022-07-29T14:33:22;100551.88;;;30.41;41.99
42125;BME280;27787;44.594;11.046;2022-07-29T14:36:06;100569.66;;;30.34;42.27
42125;BME280;27787;44.594;11.046;2022-07-29T14:38:50;100558.41;;;30.27;42.47
42125;BME280;27787;44.594;11.046;2022-07-29T14:41:34;100557.03;;;30.21;43.34
42125;BME280;27787;44.594;11.046;2022-07-29T14:44:18;100554.91;;;30.14;43.64
42125;BME280;27787;44.594;11.046;2022-07-29T14:47:02;100561.78;;;30.07;44.06
42125;BME280;27787;44.594;11.046;2022-07-29T14:49:47;100573.25;;;29.99;43.98